sensor_id;sensor_type;location;lat;lon;timestamp;pressure;altitude;pressure_sealevel;temperature;humidity
46846;BME280;33947;46.804;134.252;2023-04-29T00:03:23;100496.88;;;22.12;26.74
46846;BME280;33947;46.804;134.252;2023-04-29T00:06:32;100522.44;;;21.46;28.24
46846;BME280;33947;46.804;134.252;2023-04-29T00:09:36;100500.78;;;22.08;27.08
46846;BME280;33947;46.804;134.252;2023-04-29T00:12:44;100494.91;;;22.14;27.17
46846;BME280;33947;46.804;134.252;2023-04-29T00:15:48;100521.72;;;21.81;27.66
46846;BME280;33947;46.804;134.252;2023-04-29T00:18:53;100490.34;;;22.03;27.78
46846;BME280;33947;46.804;134.252;2023-04-29T00:21:57;100474.13;;;22.50;27.39
46846;BME280;33947;46.804;134.252;2023-04-29T00:25:04;100486.09;;;23.05;26.82
46846;BME280;33947;46.804;134.252;2023-04-29T00:28:10;100467.84;;;22.50;27.01
46846;BME280;33947;46.804;134.252;2023-04-29T00:31:16;100470.94;;;22.09;27.44
46846;BME280;33947;46.804;134.252;2023-04-29T00:34:21;100456.91;;;22.04;27.63
46846;BME280;33947;46.804;134.252;2023-04-29T00:37:26;100474.28;;;21.27;28.42
46846;BME280;33947;46.804;134.252;2023-04-29T00:40:30;100452.97;;;20.98;29.00
46846;BME280;33947;46.804;134.252;2023-04-29T00:43:35;100458.81;;;19.87;31.19
46846;BME280;33947;46.804;134.252;2023-04-29T00:46:42;100447.94;;;20.29;30.92
46846;BME280;33947;46.804;134.252;2023-04-29T00:49:47;100450.06;;;19.28;31.89
46846;BME280;33947;46.804;134.252;2023-04-29T00:52:52;100451.97;;;19.95;31.65
46846;BME280;33947;46.804;134.252;2023-04-29T00:56:00;100446.97;;;20.81;30.19
46846;BME280;33947;46.804;134.252;2023-04-29T00:59:06;100431.78;;;21.66;28.96
46846;BME280;33947;46.804;134.252;2023-04-29T01:02:15;100434.53;;;21.78;29.05
46846;BME280;33947;46.804;134.252;2023-04-29T01:05:20;100417.72;;;22.33;28.68
46846;BME280;33947;46.804;134.252;2023-04-29T01:11:41;100409.03;;;21.82;29.11
46846;BME280;33947;46.804;134.252;2023-04-29T01:14:59;100406.94;;;22.78;27.32
46846;BME280;33947;46.804;134.252;2023-04-29T01:18:29;100387.31;;;23.32;27.21
46846;BME280;33947;46.804;134.252;2023-04-29T01:21:56;100382.81;;;22.87;27.59
46846;BME280;33947;46.804;134.252;2023-04-29T01:25:01;100375.94;;;22.94;27.49
46846;BME280;33947;46.804;134.252;2023-04-29T01:28:29;100373.16;;;23.17;27.36
46846;BME280;33947;46.804;134.252;2023-04-29T01:31:50;100371.84;;;22.20;28.91
46846;BME280;33947;46.804;134.252;2023-04-29T01:38:38;100353.84;;;21.24;30.51
46846;BME280;33947;46.804;134.252;2023-04-29T01:42:29;100347.56;;;23.53;27.10
46846;BME280;33947;46.804;134.252;2023-04-29T01:45:46;100331.50;;;23.29;26.56
46846;BME280;33947;46.804;134.252;2023-04-29T01:48:54;100337.78;;;23.30;26.19
46846;BME280;33947;46.804;134.252;2023-04-29T01:52:00;100338.50;;;22.76;26.68
46846;BME280;33947;46.804;134.252;2023-04-29T01:55:06;100321.81;;;23.04;26.76
46846;BME280;33947;46.804;134.252;2023-04-29T01:58:22;100317.19;;;21.69;27.88
46846;BME280;33947;46.804;134.252;2023-04-29T02:01:43;100304.16;;;21.74;28.57
46846;BME280;33947;46.804;134.252;2023-04-29T02:08:57;100136.25;;;20.49;29.32
46846;BME280;33947;46.804;134.252;2023-04-29T02:12:45;100225.88;;;18.84;30.85
46846;BME280;33947;46.804;134.252;2023-04-29T02:16:13;100267.25;;;18.69;31.75
46846;BME280;33947;46.804;134.252;2023-04-29T02:19:39;100267.91;;;19.93;30.43
46846;BME280;33947;46.804;134.252;2023-04-29T02:22:43;100260.88;;;20.91;29.32
46846;BME280;33947;46.804;134.252;2023-04-29T02:25:51;100250.41;;;20.87;28.79
46846;BME280;33947;46.804;134.252;2023-04-29T02:29:02;100235.16;;;21.10;28.28
46846;BME280;33947;46.804;134.252;2023-04-29T02:32:08;100238.03;;;21.67;27.77
46846;BME280;33947;46.804;134.252;2023-04-29T02:35:15;100228.31;;;21.64;27.52
46846;BME280;33947;46.804;134.252;2023-04-29T02:38:20;100224.78;;;21.28;28.03
46846;BME280;33947;46.804;134.252;2023-04-29T02:41:27;100220.50;;;21.25;27.77
46846;BME280;33947;46.804;134.252;2023-04-29T02:44:31;100223.78;;;21.18;28.13
46846;BME280;33947;46.804;134.252;2023-04-29T02:47:39;100231.66;;;21.32;27.71
46846;BME280;33947;46.804;134.252;2023-04-29T02:50:43;100226.53;;;21.40;27.78
46846;BME280;33947;46.804;134.252;2023-04-29T02:53:48;100224.06;;;20.53;28.72
46846;BME280;33947;46.804;134.252;2023-04-29T02:56:54;100223.63;;;21.08;28.41
46846;BME280;33947;46.804;134.252;2023-04-29T02:59:58;100219.53;;;20.78;28.70
46846;BME280;33947;46.804;134.252;2023-04-29T03:03:05;100218.16;;;20.48;29.48
46846;BME280;33947;46.804;134.252;2023-04-29T03:06:14;100202.91;;;20.22;29.79
46846;BME280;33947;46.804;134.252;2023-04-29T03:09:19;100219.63;;;20.28;29.69
46846;BME280;33947;46.804;134.252;2023-04-29T03:12:27;100218.06;;;20.36;29.97
46846;BME280;33947;46.804;134.252;2023-04-29T03:15:31;100214.06;;;20.79;29.25
46846;BME280;33947;46.804;134.252;2023-04-29T03:18:39;100211.66;;;20.50;29.03
46846;BME280;33947;46.804;134.252;2023-04-29T03:21:44;100207.88;;;20.29;29.72
46846;BME280;33947;46.804;134.252;2023-04-29T03:24:48;100204.97;;;20.19;30.34
46846;BME280;33947;46.804;134.252;2023-04-29T03:27:56;100200.50;;;19.80;30.37
46846;BME280;33947;46.804;134.252;2023-04-29T03:31:03;100189.63;;;20.19;30.16
46846;BME280;33947;46.804;134.252;2023-04-29T03:34:08;100181.31;;;19.59;30.59
46846;BME280;33947;46.804;134.252;2023-04-29T03:37:21;100197.13;;;19.64;30.71
46846;BME280;33947;46.804;134.252;2023-04-29T03:40:33;100177.53;;;19.49;31.11
46846;BME280;33947;46.804;134.252;2023-04-29T03:43:42;100181.94;;;19.63;30.70
46846;BME280;33947;46.804;134.252;2023-04-29T03:46:46;100160.66;;;18.93;31.40
46846;BME280;33947;46.804;134.252;2023-04-29T03:49:54;100154.25;;;19.09;31.68
46846;BME280;33947;46.804;134.252;2023-04-29T03:53:01;100154.81;;;19.40;30.53
46846;BME280;33947;46.804;134.252;2023-04-29T03:56:11;100153.63;;;19.57;30.52
46846;BME280;33947;46.804;134.252;2023-04-29T03:59:22;100137.31;;;18.94;31.45
46846;BME280;33947;46.804;134.252;2023-04-29T04:02:27;100121.63;;;18.33;32.56
46846;BME280;33947;46.804;134.252;2023-04-29T04:05:32;100108.69;;;18.52;31.96
46846;BME280;33947;46.804;134.252;2023-04-29T04:08:45;100118.94;;;19.14;31.44
46846;BME280;33947;46.804;134.252;2023-04-29T04:11:58;100112.91;;;19.36;30.98
46846;BME280;33947;46.804;134.252;2023-04-29T04:15:03;100107.84;;;19.18;31.37
46846;BME280;33947;46.804;134.252;2023-04-29T04:18:12;100053.88;;;18.94;31.36
46846;BME280;33947;46.804;134.252;2023-04-29T04:21:19;100057.72;;;19.55;30.61
46846;BME280;33947;46.804;134.252;2023-04-29T04:24:39;100074.06;;;19.64;30.44
46846;BME280;33947;46.804;134.252;2023-04-29T04:27:44;100068.94;;;19.86;30.23
46846;BME280;33947;46.804;134.252;2023-04-29T04:31:16;100062.69;;;19.85;30.10
46846;BME280;33947;46.804;134.252;2023-04-29T04:34:20;100033.34;;;20.18;29.66
46846;BME280;33947;46.804;134.252;2023-04-29T04:37:30;100037.88;;;20.17;29.95
46846;BME280;33947;46.804;134.252;2023-04-29T04:40:44;100036.28;;;20.15;29.19
46846;BME280;33947;46.804;134.252;2023-04-29T04:44:10;100028.38;;;20.00;29.30
46846;BME280;33947;46.804;134.252;2023-04-29T04:47:30;100010.09;;;19.79;29.72
46846;BME280;33947;46.804;134.252;2023-04-29T04:50:40;100012.63;;;20.18;29.27
46846;BME280;33947;46.804;134.252;2023-04-29T04:53:44;100009.84;;;19.95;29.48
46846;BME280;33947;46.804;134.252;2023-04-29T04:56:57;100007.00;;;19.73;29.79
46846;BME280;33947;46.804;134.252;2023-04-29T05:00:02;99985.44;;;19.73;29.78
46846;BME280;33947;46.804;134.252;2023-04-29T05:03:09;99978.88;;;19.40;29.72
46846;BME280;33947;46.804;134.252;2023-04-29T05:06:14;99989.44;;;19.67;29.77
46846;BME280;33947;46.804;134.252;2023-04-29T05:09:21;99965.31;;;19.65;29.94
46846;BME280;33947;46.804;134.252;2023-04-29T05:12:32;99960.84;;;19.77;29.69
46846;BME280;33947;46.804;134.252;2023-04-29T05:15:38;99923.13;;;19.53;29.53
46846;BME280;33947;46.804;134.252;2023-04-29T05:18:44;99961.19;;;19.73;29.82
46846;BME280;33947;46.804;134.252;2023-04-29T05:21:52;99950.63;;;19.70;29.67
46846;BME280;33947;46.804;134.252;2023-04-29T05:24:58;99941.53;;;19.59;29.58
46846;BME280;33947;46.804;134.252;2023-04-29T05:28:08;99939.81;;;19.58;29.51
46846;BME280;33947;46.804;134.252;2023-04-29T05:31:16;99938.16;;;19.44;29.75
46846;BME280;33947;46.804;134.252;2023-04-29T05:34:20;99927.41;;;19.31;29.87
46846;BME280;33947;46.804;134.252;2023-04-29T05:37:26;99909.81;;;19.38;30.06
46846;BME280;33947;46.804;134.252;2023-04-29T05:41:02;99895.56;;;19.25;30.49
46846;BME280;33947;46.804;134.252;2023-04-29T05:44:31;99889.56;;;19.08;30.78
46846;BME280;33947;46.804;134.252;2023-04-29T05:47:36;99907.78;;;19.42;30.61
46846;BME280;33947;46.804;134.252;2023-04-29T05:50:44;99888.09;;;19.29;30.84
46846;BME280;33947;46.804;134.252;2023-04-29T05:53:53;99881.50;;;19.08;31.13
46846;BME280;33947;46.804;134.252;2023-04-29T05:57:06;99866.38;;;18.82;31.42
46846;BME280;33947;46.804;134.252;2023-04-29T06:00:16;99899.41;;;19.34;30.31
46846;BME280;33947;46.804;134.252;2023-04-29T06:03:23;99881.00;;;19.28;30.86
46846;BME280;33947;46.804;134.252;2023-04-29T06:06:48;99874.38;;;19.07;30.97
46846;BME280;33947;46.804;134.252;2023-04-29T06:09:57;99866.78;;;19.01;31.42
46846;BME280;33947;46.804;134.252;2023-04-29T06:13:05;99859.91;;;18.84;31.76
46846;BME280;33947;46.804;134.252;2023-04-29T06:16:11;99862.75;;;18.70;32.09
46846;BME280;33947;46.804;134.252;2023-04-29T06:19:19;99856.25;;;18.72;32.42
46846;BME280;33947;46.804;134.252;2023-04-29T06:22:24;99849.31;;;18.94;32.19
46846;BME280;33947;46.804;134.252;2023-04-29T06:25:34;99836.91;;;18.67;32.76
46846;BME280;33947;46.804;134.252;2023-04-29T06:28:42;99842.69;;;18.87;32.78
46846;BME280;33947;46.804;134.252;2023-04-29T06:31:47;99825.66;;;18.86;33.05
46846;BME280;33947;46.804;134.252;2023-04-29T06:34:51;99837.16;;;19.26;32.89
46846;BME280;33947;46.804;134.252;2023-04-29T06:38:22;99832.41;;;19.29;33.20
46846;BME280;33947;46.804;134.252;2023-04-29T06:41:34;99824.63;;;19.37;33.03
46846;BME280;33947;46.804;134.252;2023-04-29T06:44:59;99824.81;;;18.99;33.61
46846;BME280;33947;46.804;134.252;2023-04-29T06:48:17;99828.53;;;19.09;33.25
46846;BME280;33947;46.804;134.252;2023-04-29T06:51:22;99816.13;;;19.06;33.24
46846;BME280;33947;46.804;134.252;2023-04-29T06:54:40;99823.66;;;19.14;33.57
46846;BME280;33947;46.804;134.252;2023-04-29T06:57:46;99819.69;;;19.31;33.62
46846;BME280;33947;46.804;134.252;2023-04-29T07:00:52;99803.06;;;18.89;34.21
46846;BME280;33947;46.804;134.252;2023-04-29T07:04:00;99818.09;;;18.91;34.78
46846;BME280;33947;46.804;134.252;2023-04-29T07:07:09;99813.91;;;18.87;35.04
46846;BME280;33947;46.804;134.252;2023-04-29T07:10:15;99800.34;;;19.02;34.81
46846;BME280;33947;46.804;134.252;2023-04-29T07:13:24;99788.09;;;18.98;34.78
46846;BME280;33947;46.804;134.252;2023-04-29T07:16:39;99795.53;;;18.81;35.21
46846;BME280;33947;46.804;134.252;2023-04-29T07:23:34;99766.16;;;18.54;35.50
46846;BME280;33947;46.804;134.252;2023-04-29T07:26:41;99775.34;;;18.38;35.99
46846;BME280;33947;46.804;134.252;2023-04-29T07:29:48;99785.31;;;18.49;35.90
46846;BME280;33947;46.804;134.252;2023-04-29T07:32:53;99776.00;;;18.66;35.77
46846;BME280;33947;46.804;134.252;2023-04-29T07:36:02;99774.88;;;18.57;35.94
46846;BME280;33947;46.804;134.252;2023-04-29T07:39:12;99768.44;;;18.34;36.50
46846;BME280;33947;46.804;134.252;2023-04-29T07:42:23;99776.38;;;18.48;36.24
46846;BME280;33947;46.804;134.252;2023-04-29T07:45:28;99772.66;;;18.38;36.72
46846;BME280;33947;46.804;134.252;2023-04-29T07:48:38;99751.91;;;18.27;36.56
46846;BME280;33947;46.804;134.252;2023-04-29T07:51:45;99761.47;;;18.31;36.64
46846;BME280;33947;46.804;134.252;2023-04-29T07:55:01;99757.84;;;18.06;37.06
46846;BME280;33947;46.804;134.252;2023-04-29T07:58:07;99769.84;;;18.27;37.11
46846;BME280;33947;46.804;134.252;2023-04-29T08:01:11;99736.56;;;18.16;36.94
46846;BME280;33947;46.804;134.252;2023-04-29T08:04:20;99736.34;;;18.06;37.44
46846;BME280;33947;46.804;134.252;2023-04-29T08:07:49;99734.84;;;18.15;37.07
46846;BME280;33947;46.804;134.252;2023-04-29T08:10:54;99730.94;;;18.19;36.99
46846;BME280;33947;46.804;134.252;2023-04-29T08:13:59;99734.38;;;18.21;37.10
46846;BME280;33947;46.804;134.252;2023-04-29T08:17:05;99710.09;;;17.97;37.59
46846;BME280;33947;46.804;134.252;2023-04-29T08:20:12;99701.81;;;18.00;37.49
46846;BME280;33947;46.804;134.252;2023-04-29T08:30:37;99707.75;;;18.05;37.73
46846;BME280;33947;46.804;134.252;2023-04-29T08:33:41;99701.53;;;18.05;37.66
46846;BME280;33947;46.804;134.252;2023-04-29T08:36:46;99707.97;;;17.76;38.22
46846;BME280;33947;46.804;134.252;2023-04-29T08:39:51;99679.81;;;17.82;38.19
46846;BME280;33947;46.804;134.252;2023-04-29T08:43:16;99697.56;;;17.85;38.26
46846;BME280;33947;46.804;134.252;2023-04-29T08:46:23;99703.25;;;17.80;38.65
46846;BME280;33947;46.804;134.252;2023-04-29T08:49:29;99697.13;;;17.78;38.58
46846;BME280;33947;46.804;134.252;2023-04-29T08:52:36;99682.31;;;17.46;39.07
46846;BME280;33947;46.804;134.252;2023-04-29T08:55:45;99700.97;;;17.48;39.40
46846;BME280;33947;46.804;134.252;2023-04-29T08:58:50;99697.47;;;17.47;39.11
46846;BME280;33947;46.804;134.252;2023-04-29T09:01:58;99699.16;;;17.48;39.19
46846;BME280;33947;46.804;134.252;2023-04-29T09:05:06;99684.31;;;17.30;39.38
46846;BME280;33947;46.804;134.252;2023-04-29T09:08:12;99681.84;;;17.14;39.91
46846;BME280;33947;46.804;134.252;2023-04-29T09:11:17;99680.66;;;17.05;40.10
46846;BME280;33947;46.804;134.252;2023-04-29T09:14:22;99681.31;;;16.81;40.65
46846;BME280;33947;46.804;134.252;2023-04-29T09:17:47;99670.13;;;16.74;40.39
46846;BME280;33947;46.804;134.252;2023-04-29T09:20:52;99667.69;;;16.84;40.54
46846;BME280;33947;46.804;134.252;2023-04-29T09:23:59;99658.13;;;16.80;40.26
46846;BME280;33947;46.804;134.252;2023-04-29T09:27:04;99651.22;;;16.63;40.61
46846;BME280;33947;46.804;134.252;2023-04-29T09:30:12;99653.63;;;16.53;40.90
46846;BME280;33947;46.804;134.252;2023-04-29T09:33:24;99632.41;;;16.23;41.10
46846;BME280;33947;46.804;134.252;2023-04-29T09:36:48;99647.19;;;16.43;41.11
46846;BME280;33947;46.804;134.252;2023-04-29T09:39:56;99647.81;;;16.19;41.38
46846;BME280;33947;46.804;134.252;2023-04-29T09:43:02;99640.50;;;15.94;41.76
46846;BME280;33947;46.804;134.252;2023-04-29T09:46:11;99644.84;;;16.09;41.56
46846;BME280;33947;46.804;134.252;2023-04-29T09:49:27;99617.50;;;16.18;41.15
46846;BME280;33947;46.804;134.252;2023-04-29T09:52:39;99645.19;;;16.04;41.48
46846;BME280;33947;46.804;134.252;2023-04-29T09:56:05;99634.25;;;15.78;42.38
46846;BME280;33947;46.804;134.252;2023-04-29T09:59:13;99639.16;;;15.86;41.93
46846;BME280;33947;46.804;134.252;2023-04-29T10:02:17;99640.88;;;15.87;42.08
46846;BME280;33947;46.804;134.252;2023-04-29T10:05:27;99604.66;;;15.67;42.21
46846;BME280;33947;46.804;134.252;2023-04-29T10:08:33;99616.13;;;15.69;42.23
46846;BME280;33947;46.804;134.252;2023-04-29T10:11:42;99619.06;;;15.65;42.69
46846;BME280;33947;46.804;134.252;2023-04-29T10:15:02;99555.84;;;15.34;42.54
46846;BME280;33947;46.804;134.252;2023-04-29T10:18:29;99616.97;;;15.55;43.00
46846;BME280;33947;46.804;134.252;2023-04-29T10:21:37;99604.38;;;15.43;42.91
46846;BME280;33947;46.804;134.252;2023-04-29T10:24:42;99605.03;;;15.32;43.19
46846;BME280;33947;46.804;134.252;2023-04-29T10:27:47;99610.47;;;15.16;43.79
46846;BME280;33947;46.804;134.252;2023-04-29T10:30:53;99601.69;;;15.28;43.11
46846;BME280;33947;46.804;134.252;2023-04-29T10:34:01;99610.66;;;15.27;43.26
46846;BME280;33947;46.804;134.252;2023-04-29T10:37:09;99606.56;;;15.22;43.52
46846;BME280;33947;46.804;134.252;2023-04-29T10:43:24;99611.22;;;15.32;43.26
46846;BME280;33947;46.804;134.252;2023-04-29T10:46:30;99636.19;;;15.47;43.01
46846;BME280;33947;46.804;134.252;2023-04-29T10:49:35;99614.84;;;15.17;43.74
46846;BME280;33947;46.804;134.252;2023-04-29T10:52:51;99629.28;;;15.14;44.12
46846;BME280;33947;46.804;134.252;2023-04-29T10:56:03;99638.50;;;15.54;43.40
46846;BME280;33947;46.804;134.252;2023-04-29T10:59:13;99633.31;;;15.51;42.83
46846;BME280;33947;46.804;134.252;2023-04-29T11:02:23;99622.34;;;15.41;41.77
46846;BME280;33947;46.804;134.252;2023-04-29T11:05:36;99635.06;;;14.92;42.66
46846;BME280;33947;46.804;134.252;2023-04-29T11:08:41;99629.31;;;14.84;43.00
46846;BME280;33947;46.804;134.252;2023-04-29T11:11:59;99656.97;;;15.13;42.12
46846;BME280;33947;46.804;134.252;2023-04-29T11:15:07;99641.69;;;15.01;42.00
46846;BME280;33947;46.804;134.252;2023-04-29T11:18:14;99634.41;;;14.88;41.97
46846;BME280;33947;46.804;134.252;2023-04-29T11:21:19;99634.78;;;14.66;42.35
46846;BME280;33947;46.804;134.252;2023-04-29T11:24:24;99637.34;;;14.68;42.15
46846;BME280;33947;46.804;134.252;2023-04-29T11:27:33;99637.28;;;14.69;42.32
46846;BME280;33947;46.804;134.252;2023-04-29T11:30:39;99622.19;;;14.68;42.49
46846;BME280;33947;46.804;134.252;2023-04-29T11:33:45;99630.28;;;14.67;42.61
46846;BME280;33947;46.804;134.252;2023-04-29T11:36:52;99628.75;;;14.62;42.43
46846;BME280;33947;46.804;134.252;2023-04-29T11:40:00;99635.75;;;14.49;42.92
46846;BME280;33947;46.804;134.252;2023-04-29T11:43:07;99626.22;;;14.29;43.23
46846;BME280;33947;46.804;134.252;2023-04-29T11:46:13;99616.16;;;14.18;43.21
46846;BME280;33947;46.804;134.252;2023-04-29T11:49:17;99632.59;;;14.26;42.96
46846;BME280;33947;46.804;134.252;2023-04-29T11:52:23;99630.44;;;14.17;43.03
46846;BME280;33947;46.804;134.252;2023-04-29T11:55:27;99617.63;;;14.24;42.56
46846;BME280;33947;46.804;134.252;2023-04-29T11:58:35;99648.25;;;14.32;42.76
46846;BME280;33947;46.804;134.252;2023-04-29T12:01:40;99640.94;;;14.36;42.41
46846;BME280;33947;46.804;134.252;2023-04-29T12:04:46;99643.44;;;14.07;43.14
46846;BME280;33947;46.804;134.252;2023-04-29T12:07:55;99610.44;;;13.92;43.16
46846;BME280;33947;46.804;134.252;2023-04-29T12:11:00;99638.03;;;13.93;43.72
46846;BME280;33947;46.804;134.252;2023-04-29T12:14:05;99634.75;;;13.87;43.38
46846;BME280;33947;46.804;134.252;2023-04-29T12:17:13;99634.34;;;13.45;44.77
46846;BME280;33947;46.804;134.252;2023-04-29T12:20:21;99633.78;;;13.72;44.00
46846;BME280;33947;46.804;134.252;2023-04-29T12:23:27;99635.91;;;13.66;44.27
46846;BME280;33947;46.804;134.252;2023-04-29T12:26:34;99614.34;;;13.70;43.91
46846;BME280;33947;46.804;134.252;2023-04-29T12:29:41;99635.25;;;13.78;43.98
46846;BME280;33947;46.804;134.252;2023-04-29T12:32:46;99613.19;;;13.58;44.56
46846;BME280;33947;46.804;134.252;2023-04-29T12:35:52;99618.25;;;13.63;44.36
46846;BME280;33947;46.804;134.252;2023-04-29T12:38:59;99610.09;;;13.82;44.09
46846;BME280;33947;46.804;134.252;2023-04-29T12:42:05;99606.66;;;13.64;44.67
46846;BME280;33947;46.804;134.252;2023-04-29T12:45:25;99608.44;;;13.48;44.59
46846;BME280;33947;46.804;134.252;2023-04-29T12:48:32;99602.09;;;13.50;44.88
46846;BME280;33947;46.804;134.252;2023-04-29T12:51:38;99599.72;;;13.44;44.92
46846;BME280;33947;46.804;134.252;2023-04-29T12:54:42;99593.22;;;13.32;44.97
46846;BME280;33947;46.804;134.252;2023-04-29T12:57:47;99590.41;;;13.35;45.17
46846;BME280;33947;46.804;134.252;2023-04-29T13:00:52;99586.34;;;13.28;45.15
46846;BME280;33947;46.804;134.252;2023-04-29T13:03:56;99560.75;;;13.08;45.72
46846;BME280;33947;46.804;134.252;2023-04-29T13:07:02;99584.63;;;13.27;45.40
46846;BME280;33947;46.804;134.252;2023-04-29T13:10:08;99559.94;;;13.06;45.74
46846;BME280;33947;46.804;134.252;2023-04-29T13:13:15;99558.06;;;13.08;45.79
46846;BME280;33947;46.804;134.252;2023-04-29T13:16:19;99556.66;;;13.00;46.21
46846;BME280;33947;46.804;134.252;2023-04-29T13:19:24;99548.31;;;13.07;45.85
46846;BME280;33947;46.804;134.252;2023-04-29T13:22:51;99545.34;;;13.13;45.99
46846;BME280;33947;46.804;134.252;2023-04-29T13:26:00;99521.56;;;12.92;45.96
46846;BME280;33947;46.804;134.252;2023-04-29T13:29:07;99522.78;;;13.02;46.02
46846;BME280;33947;46.804;134.252;2023-04-29T13:32:12;99526.28;;;12.87;46.56
46846;BME280;33947;46.804;134.252;2023-04-29T13:35:20;99516.16;;;12.94;46.59
46846;BME280;33947;46.804;134.252;2023-04-29T13:38:25;99516.66;;;13.00;46.19
46846;BME280;33947;46.804;134.252;2023-04-29T13:41:30;99511.66;;;12.94;46.16
46846;BME280;33947;46.804;134.252;2023-04-29T13:44:38;99502.56;;;12.98;46.14
46846;BME280;33947;46.804;134.252;2023-04-29T13:47:55;99494.72;;;12.95;46.16
46846;BME280;33947;46.804;134.252;2023-04-29T13:51:18;99477.28;;;12.90;46.35
46846;BME280;33947;46.804;134.252;2023-04-29T13:54:42;99477.88;;;12.95;45.83
46846;BME280;33947;46.804;134.252;2023-04-29T13:57:49;99470.91;;;12.92;46.17
46846;BME280;33947;46.804;134.252;2023-04-29T14:01:15;99460.97;;;12.78;46.67
46846;BME280;33947;46.804;134.252;2023-04-29T14:04:39;99456.88;;;12.72;46.36
46846;BME280;33947;46.804;134.252;2023-04-29T14:07:45;99452.75;;;12.83;46.14
46846;BME280;33947;46.804;134.252;2023-04-29T14:10:50;99458.09;;;12.65;46.41
46846;BME280;33947;46.804;134.252;2023-04-29T14:13:54;99433.19;;;12.66;46.16
46846;BME280;33947;46.804;134.252;2023-04-29T14:16:59;99440.78;;;12.74;46.02
46846;BME280;33947;46.804;134.252;2023-04-29T14:20:07;99423.16;;;12.71;46.38
46846;BME280;33947;46.804;134.252;2023-04-29T14:23:12;99420.19;;;12.60;46.80
46846;BME280;33947;46.804;134.252;2023-04-29T14:26:17;99445.50;;;12.69;46.78
46846;BME280;33947;46.804;134.252;2023-04-29T14:29:24;99402.22;;;12.48;46.77
46846;BME280;33947;46.804;134.252;2023-04-29T14:32:28;99431.47;;;12.65;47.49
46846;BME280;33947;46.804;134.252;2023-04-29T14:35:33;99424.41;;;12.64;48.14
46846;BME280;33947;46.804;134.252;2023-04-29T14:38:37;99414.78;;;12.10;50.31
46846;BME280;33947;46.804;134.252;2023-04-29T14:41:42;99413.81;;;12.29;50.07
46846;BME280;33947;46.804;134.252;2023-04-29T14:44:50;99382.69;;;12.13;50.49
46846;BME280;33947;46.804;134.252;2023-04-29T14:47:57;99380.97;;;11.95;50.65
46846;BME280;33947;46.804;134.252;2023-04-29T14:51:04;99393.47;;;11.93;51.47
46846;BME280;33947;46.804;134.252;2023-04-29T14:54:12;99405.50;;;11.82;51.85
46846;BME280;33947;46.804;134.252;2023-04-29T14:57:16;99397.22;;;11.71;52.23
46846;BME280;33947;46.804;134.252;2023-04-29T15:00:24;99290.66;;;10.84;54.01
46846;BME280;33947;46.804;134.252;2023-04-29T15:03:28;99377.63;;;11.37;54.35
46846;BME280;33947;46.804;134.252;2023-04-29T15:06:33;99378.78;;;11.31;54.77
46846;BME280;33947;46.804;134.252;2023-04-29T15:09:41;99350.63;;;11.27;54.47
46846;BME280;33947;46.804;134.252;2023-04-29T15:12:45;99347.75;;;11.32;54.69
46846;BME280;33947;46.804;134.252;2023-04-29T15:15:50;99357.50;;;11.31;54.37
46846;BME280;33947;46.804;134.252;2023-04-29T15:18:54;99352.59;;;11.23;54.88
46846;BME280;33947;46.804;134.252;2023-04-29T15:21:58;99336.69;;;11.22;54.72
46846;BME280;33947;46.804;134.252;2023-04-29T15:25:07;99350.13;;;11.19;55.19
46846;BME280;33947;46.804;134.252;2023-04-29T15:28:16;99352.22;;;11.12;55.96
46846;BME280;33947;46.804;134.252;2023-04-29T15:31:21;99339.38;;;11.03;55.92
46846;BME280;33947;46.804;134.252;2023-04-29T15:34:30;99351.41;;;10.73;57.40
46846;BME280;33947;46.804;134.252;2023-04-29T15:37:34;99338.41;;;10.67;58.07
46846;BME280;33947;46.804;134.252;2023-04-29T15:40:39;99333.00;;;10.49;59.39
46846;BME280;33947;46.804;134.252;2023-04-29T15:43:44;99323.78;;;10.37;59.74
46846;BME280;33947;46.804;134.252;2023-04-29T15:46:48;99322.47;;;10.48;60.09
46846;BME280;33947;46.804;134.252;2023-04-29T15:49:52;99306.56;;;10.27;60.46
46846;BME280;33947;46.804;134.252;2023-04-29T15:52:58;99276.50;;;10.07;60.79
46846;BME280;33947;46.804;134.252;2023-04-29T15:56:03;99300.25;;;10.30;61.45
46846;BME280;33947;46.804;134.252;2023-04-29T15:59:09;99318.34;;;10.40;61.93
46846;BME280;33947;46.804;134.252;2023-04-29T16:02:13;99301.19;;;10.28;62.46
46846;BME280;33947;46.804;134.252;2023-04-29T16:05:18;99289.63;;;10.10;62.99
46846;BME280;33947;46.804;134.252;2023-04-29T16:08:23;99280.84;;;9.68;65.37
46846;BME280;33947;46.804;134.252;2023-04-29T16:11:27;99270.00;;;9.54;66.17
46846;BME280;33947;46.804;134.252;2023-04-29T16:14:32;99282.56;;;9.90;65.04
46846;BME280;33947;46.804;134.252;2023-04-29T16:17:37;99284.28;;;9.91;65.68
46846;BME280;33947;46.804;134.252;2023-04-29T16:20:42;99258.84;;;9.66;66.31
46846;BME280;33947;46.804;134.252;2023-04-29T16:23:47;99261.94;;;9.14;69.39
46846;BME280;33947;46.804;134.252;2023-04-29T16:26:55;99246.56;;;9.02;68.98
46846;BME280;33947;46.804;134.252;2023-04-29T16:30:02;99254.09;;;9.11;69.00
46846;BME280;33947;46.804;134.252;2023-04-29T16:33:06;99226.84;;;8.87;70.02
46846;BME280;33947;46.804;134.252;2023-04-29T16:36:11;99222.75;;;8.79;70.31
46846;BME280;33947;46.804;134.252;2023-04-29T16:39:16;99236.72;;;9.26;68.81